Portada
METAR-TAF:

METAR-TAF

Aeroports :

Lanzhou, Xina

latitud: 36-02N, longitud: 103-52E, altitud: 1518 m

Observació

L'informe es va fer fa 34 minuts, a les 03:00 UTC
Vent 8 kt del Est/Nord-Est, variant entre Nord/Nord-Est i Est
Temperatura 3°C
Humitat 100%
Pressió 1029 hPa
Visibilitat: 6000 m
Núvols disperses a una alçada de 1000 ft
Cel cobert a una alçada de 3000 ft
pluja

METAR: ZLLL 150300Z 07004MPS 030V100 6000 -RA SCT010 OVC030 03/03 Q1029 NOSIG

Hora: 11:34 (03:34 UTC)

Pronòstic

L'informe es va fer fa 8 hores i 21 minuts, a les 19:13 UTC
Pronòstic vàlid del 15 a les 00 UTC al 15 a les 24 UTC
Vent 6 kt del Nord/Nord-Est
Visibilitat: 6000 m
Cel ennuvolat a una alçada de 4000 ft
pluja
Temporalment
l' 15 a les 02 UTC al 15 a les 08 UTC
pluja

TAF: ZLLL 141913Z 1500/1524 03003MPS 6000 -RA BKN040 TX06/1509Z TNM01/23Z TEMPO 1502/1508 RA

Observacions i pronòstics meteorològics de més de 4000 aeroports (METAR i TAF).

Les estacions disponibles són els punts grocs i vermells al mapa.

Posi el ratolí al punt desitjat per veure el nom de l'estació.

Feu clic per veure les observacions i els pronòstics meteorològics.

Per canviar el mapa: feu clic els botons verds amb una creu de color negre per apropar; al botó verd amb un guió per allunyar la imatge; o en les fletxes verdes per a mapes adjacents.


METAR-TAF: